Little Point, Indiana
Current Conditions -  °F | °C
As of 2:53 PM on Friday 24 Oct 2014 (Local Time) from KBMG Reporting Station
Clear Clear  
Wind Chill: 65°   Ceiling: Unl
Heat Index: 65°   Visibility: 10mi
Dew Point: 49°   Wind: 5mph
Humidity: 56%   Direction: 190°S
Pressure: 30.05"   Gusts: NA
Location:  39.3°N, 86.6495°W
Report Text: KBMG 241853Z 19004KT 10SM CLR 18/09 A3005 RMK AO2 SLP177 T01830094
Loading
Personal Weather Stations






























Interactive Weather Map
Tropical Storm Tracking
New forecast layout! Learn more

10-Day Weather Forecast

Advertisements
Track Severe Weather on mobile